sensor_id;sensor_type;location;lat;lon;timestamp;P1;durP1;ratioP1;P2;durP2;ratioP2
73437;SDS011;66471;56.532;21.020;2023-02-10T00:01:20;30.30;;;13.20;;
73437;SDS011;66471;56.532;21.020;2023-02-10T00:03:49;44.25;;;15.27;;
73437;SDS011;66471;56.532;21.020;2023-02-10T00:06:17;31.88;;;12.90;;
73437;SDS011;66471;56.532;21.020;2023-02-10T00:08:49;31.90;;;12.40;;
73437;SDS011;66471;56.532;21.020;2023-02-10T00:11:17;30.87;;;11.83;;
73437;SDS011;66471;56.532;21.020;2023-02-10T00:13:45;28.05;;;11.23;;
73437;SDS011;66471;56.532;21.020;2023-02-10T00:16:14;26.10;;;10.70;;
73437;SDS011;66471;56.532;21.020;2023-02-10T00:18:41;32.90;;;11.70;;
73437;SDS011;66471;56.532;21.020;2023-02-10T00:21:10;29.75;;;12.27;;
73437;SDS011;66471;56.532;21.020;2023-02-10T00:23:42;38.40;;;13.10;;
73437;SDS011;66471;56.532;21.020;2023-02-10T00:26:10;29.23;;;11.95;;
73437;SDS011;66471;56.532;21.020;2023-02-10T00:28:40;32.00;;;13.10;;
73437;SDS011;66471;56.532;21.020;2023-02-10T00:31:11;41.08;;;14.73;;
73437;SDS011;66471;56.532;21.020;2023-02-10T00:33:39;31.48;;;13.38;;
73437;SDS011;66471;56.532;21.020;2023-02-10T00:36:08;33.13;;;12.57;;
73437;SDS011;66471;56.532;21.020;2023-02-10T00:38:37;26.42;;;11.60;;
73437;SDS011;66471;56.532;21.020;2023-02-10T00:41:06;31.30;;;11.52;;
73437;SDS011;66471;56.532;21.020;2023-02-10T00:43:35;27.02;;;11.30;;
73437;SDS011;66471;56.532;21.020;2023-02-10T00:46:03;32.08;;;12.68;;
73437;SDS011;66471;56.532;21.020;2023-02-10T00:48:30;35.17;;;12.90;;
73437;SDS011;66471;56.532;21.020;2023-02-10T00:50:57;29.83;;;12.27;;
73437;SDS011;66471;56.532;21.020;2023-02-10T00:53:24;28.83;;;12.20;;
73437;SDS011;66471;56.532;21.020;2023-02-10T00:55:52;29.40;;;12.07;;
73437;SDS011;66471;56.532;21.020;2023-02-10T00:58:21;32.83;;;11.85;;
73437;SDS011;66471;56.532;21.020;2023-02-10T01:00:49;29.20;;;11.20;;
73437;SDS011;66471;56.532;21.020;2023-02-10T01:03:16;31.27;;;11.27;;
73437;SDS011;66471;56.532;21.020;2023-02-10T01:05:43;29.30;;;11.82;;
73437;SDS011;66471;56.532;21.020;2023-02-10T01:08:12;29.27;;;10.82;;
73437;SDS011;66471;56.532;21.020;2023-02-10T01:10:40;29.10;;;9.48;;
73437;SDS011;66471;56.532;21.020;2023-02-10T01:13:08;26.83;;;10.17;;
73437;SDS011;66471;56.532;21.020;2023-02-10T01:15:36;25.35;;;9.48;;
73437;SDS011;66471;56.532;21.020;2023-02-10T01:18:12;27.08;;;9.27;;
73437;SDS011;66471;56.532;21.020;2023-02-10T01:20:39;23.85;;;9.90;;
73437;SDS011;66471;56.532;21.020;2023-02-10T01:23:08;23.23;;;8.93;;
73437;SDS011;66471;56.532;21.020;2023-02-10T01:25:35;23.33;;;8.53;;
73437;SDS011;66471;56.532;21.020;2023-02-10T01:28:03;22.10;;;8.85;;
73437;SDS011;66471;56.532;21.020;2023-02-10T01:30:31;22.25;;;8.40;;
73437;SDS011;66471;56.532;21.020;2023-02-10T01:32:58;18.33;;;6.45;;
73437;SDS011;66471;56.532;21.020;2023-02-10T01:35:25;22.17;;;6.20;;
73437;SDS011;66471;56.532;21.020;2023-02-10T01:37:52;20.30;;;7.80;;
73437;SDS011;66471;56.532;21.020;2023-02-10T01:40:21;23.00;;;6.75;;
73437;SDS011;66471;56.532;21.020;2023-02-10T01:42:49;20.55;;;7.47;;
73437;SDS011;66471;56.532;21.020;2023-02-10T01:45:22;25.30;;;7.35;;
73437;SDS011;66471;56.532;21.020;2023-02-10T01:48:01;15.65;;;5.47;;
73437;SDS011;66471;56.532;21.020;2023-02-10T01:53:17;17.38;;;5.88;;
73437;SDS011;66471;56.532;21.020;2023-02-10T01:55:45;19.83;;;5.82;;
73437;SDS011;66471;56.532;21.020;2023-02-10T01:58:15;20.00;;;6.43;;
73437;SDS011;66471;56.532;21.020;2023-02-10T02:00:46;18.40;;;5.65;;
73437;SDS011;66471;56.532;21.020;2023-02-10T02:03:13;19.57;;;6.13;;
73437;SDS011;66471;56.532;21.020;2023-02-10T02:05:42;21.20;;;6.05;;
73437;SDS011;66471;56.532;21.020;2023-02-10T02:28:42;27.65;;;6.90;;
73437;SDS011;66471;56.532;21.020;2023-02-10T02:33:42;26.80;;;8.18;;
73437;SDS011;66471;56.532;21.020;2023-02-10T02:39:12;21.77;;;5.78;;
73437;SDS011;66471;56.532;21.020;2023-02-10T02:41:39;21.48;;;6.03;;
73437;SDS011;66471;56.532;21.020;2023-02-10T02:44:06;20.63;;;6.07;;
73437;SDS011;66471;56.532;21.020;2023-02-10T02:46:37;19.00;;;4.43;;
73437;SDS011;66471;56.532;21.020;2023-02-10T02:52:44;21.90;;;5.85;;
73437;SDS011;66471;56.532;21.020;2023-02-10T02:55:34;22.75;;;5.68;;
73437;SDS011;66471;56.532;21.020;2023-02-10T02:58:29;16.63;;;5.27;;
73437;SDS011;66471;56.532;21.020;2023-02-10T03:01:00;20.70;;;6.10;;
73437;SDS011;66471;56.532;21.020;2023-02-10T03:03:34;22.65;;;5.57;;
73437;SDS011;66471;56.532;21.020;2023-02-10T03:06:02;20.48;;;5.57;;
73437;SDS011;66471;56.532;21.020;2023-02-10T03:08:30;18.80;;;5.03;;
73437;SDS011;66471;56.532;21.020;2023-02-10T03:10:59;18.13;;;4.80;;
73437;SDS011;66471;56.532;21.020;2023-02-10T03:13:26;20.33;;;5.53;;
73437;SDS011;66471;56.532;21.020;2023-02-10T03:15:53;20.23;;;5.80;;
73437;SDS011;66471;56.532;21.020;2023-02-10T03:18:20;20.25;;;4.88;;
73437;SDS011;66471;56.532;21.020;2023-02-10T03:20:47;19.30;;;4.95;;
73437;SDS011;66471;56.532;21.020;2023-02-10T03:23:14;14.27;;;4.77;;
73437;SDS011;66471;56.532;21.020;2023-02-10T03:25:43;22.17;;;6.20;;
73437;SDS011;66471;56.532;21.020;2023-02-10T03:28:12;19.98;;;4.38;;
73437;SDS011;66471;56.532;21.020;2023-02-10T03:30:39;22.90;;;4.55;;
73437;SDS011;66471;56.532;21.020;2023-02-10T03:33:13;16.60;;;4.25;;
73437;SDS011;66471;56.532;21.020;2023-02-10T03:35:41;14.00;;;4.43;;
73437;SDS011;66471;56.532;21.020;2023-02-10T03:38:09;15.73;;;5.50;;
73437;SDS011;66471;56.532;21.020;2023-02-10T03:40:36;20.20;;;4.20;;
73437;SDS011;66471;56.532;21.020;2023-02-10T03:43:03;12.88;;;3.92;;
73437;SDS011;66471;56.532;21.020;2023-02-10T03:45:30;12.65;;;3.67;;
73437;SDS011;66471;56.532;21.020;2023-02-10T03:47:58;16.97;;;4.37;;
73437;SDS011;66471;56.532;21.020;2023-02-10T03:50:25;14.93;;;2.53;;
73437;SDS011;66471;56.532;21.020;2023-02-10T03:52:52;12.18;;;3.13;;
73437;SDS011;66471;56.532;21.020;2023-02-10T03:55:19;10.60;;;2.42;;
73437;SDS011;66471;56.532;21.020;2023-02-10T03:57:47;12.40;;;3.50;;
73437;SDS011;66471;56.532;21.020;2023-02-10T04:00:14;10.77;;;2.60;;
73437;SDS011;66471;56.532;21.020;2023-02-10T04:02:42;14.00;;;2.83;;
73437;SDS011;66471;56.532;21.020;2023-02-10T04:05:09;17.23;;;3.65;;
73437;SDS011;66471;56.532;21.020;2023-02-10T04:07:36;16.65;;;2.58;;
73437;SDS011;66471;56.532;21.020;2023-02-10T04:10:03;11.93;;;3.42;;
73437;SDS011;66471;56.532;21.020;2023-02-10T04:12:31;14.17;;;3.30;;
73437;SDS011;66471;56.532;21.020;2023-02-10T04:14:58;25.80;;;4.53;;
73437;SDS011;66471;56.532;21.020;2023-02-10T04:17:25;11.82;;;2.78;;
73437;SDS011;66471;56.532;21.020;2023-02-10T04:19:52;17.88;;;2.70;;
73437;SDS011;66471;56.532;21.020;2023-02-10T04:22:19;12.02;;;3.15;;
73437;SDS011;66471;56.532;21.020;2023-02-10T04:24:46;13.20;;;2.90;;
73437;SDS011;66471;56.532;21.020;2023-02-10T04:27:13;13.40;;;3.10;;
73437;SDS011;66471;56.532;21.020;2023-02-10T04:29:40;14.70;;;3.25;;
73437;SDS011;66471;56.532;21.020;2023-02-10T04:32:07;15.15;;;2.83;;
73437;SDS011;66471;56.532;21.020;2023-02-10T04:34:34;17.75;;;3.00;;
73437;SDS011;66471;56.532;21.020;2023-02-10T04:37:01;9.57;;;3.50;;
73437;SDS011;66471;56.532;21.020;2023-02-10T04:39:28;10.70;;;3.67;;
73437;SDS011;66471;56.532;21.020;2023-02-10T04:41:55;19.00;;;4.32;;
73437;SDS011;66471;56.532;21.020;2023-02-10T04:44:22;12.05;;;3.30;;
73437;SDS011;66471;56.532;21.020;2023-02-10T04:46:50;13.77;;;2.63;;
73437;SDS011;66471;56.532;21.020;2023-02-10T04:49:17;11.13;;;2.40;;
73437;SDS011;66471;56.532;21.020;2023-02-10T04:51:45;10.57;;;2.50;;
73437;SDS011;66471;56.532;21.020;2023-02-10T04:54:12;9.38;;;2.30;;
73437;SDS011;66471;56.532;21.020;2023-02-10T04:56:39;7.78;;;2.22;;
73437;SDS011;66471;56.532;21.020;2023-02-10T04:59:08;12.02;;;2.05;;
73437;SDS011;66471;56.532;21.020;2023-02-10T05:01:35;11.53;;;2.50;;
73437;SDS011;66471;56.532;21.020;2023-02-10T05:04:02;6.88;;;2.40;;
73437;SDS011;66471;56.532;21.020;2023-02-10T05:06:30;8.82;;;2.70;;
73437;SDS011;66471;56.532;21.020;2023-02-10T13:36:27;7.38;;;2.45;;
73437;SDS011;66471;56.532;21.020;2023-02-10T13:39:00;9.35;;;2.33;;
73437;SDS011;66471;56.532;21.020;2023-02-10T13:41:41;5.38;;;1.88;;
73437;SDS011;66471;56.532;21.020;2023-02-10T13:44:18;5.07;;;2.07;;
73437;SDS011;66471;56.532;21.020;2023-02-10T13:46:46;10.75;;;2.83;;
73437;SDS011;66471;56.532;21.020;2023-02-10T13:49:52;11.93;;;1.90;;
73437;SDS011;66471;56.532;21.020;2023-02-10T13:52:26;8.30;;;1.42;;
73437;SDS011;66471;56.532;21.020;2023-02-10T13:54:59;9.02;;;3.78;;
73437;SDS011;66471;56.532;21.020;2023-02-10T13:57:37;15.13;;;4.60;;
73437;SDS011;66471;56.532;21.020;2023-02-10T14:00:18;15.60;;;3.05;;
73437;SDS011;66471;56.532;21.020;2023-02-10T14:03:00;9.60;;;2.83;;
73437;SDS011;66471;56.532;21.020;2023-02-10T14:11:01;13.53;;;3.07;;
73437;SDS011;66471;56.532;21.020;2023-02-10T14:13:32;15.98;;;2.90;;
73437;SDS011;66471;56.532;21.020;2023-02-10T14:16:04;10.80;;;2.92;;
73437;SDS011;66471;56.532;21.020;2023-02-10T14:18:36;15.30;;;3.40;;
73437;SDS011;66471;56.532;21.020;2023-02-10T14:21:06;9.05;;;2.70;;
73437;SDS011;66471;56.532;21.020;2023-02-10T14:23:39;11.53;;;4.40;;
73437;SDS011;66471;56.532;21.020;2023-02-10T14:26:29;8.98;;;3.03;;
73437;SDS011;66471;56.532;21.020;2023-02-10T14:29:02;10.32;;;2.95;;
73437;SDS011;66471;56.532;21.020;2023-02-10T14:31:32;9.27;;;2.90;;
73437;SDS011;66471;56.532;21.020;2023-02-10T14:34:04;12.85;;;5.57;;
73437;SDS011;66471;56.532;21.020;2023-02-10T14:39:26;10.70;;;2.53;;
73437;SDS011;66471;56.532;21.020;2023-02-10T14:41:57;10.07;;;3.95;;
73437;SDS011;66471;56.532;21.020;2023-02-10T14:44:40;16.70;;;5.03;;
73437;SDS011;66471;56.532;21.020;2023-02-10T14:47:14;15.73;;;4.97;;
73437;SDS011;66471;56.532;21.020;2023-02-10T14:49:43;11.47;;;4.30;;
73437;SDS011;66471;56.532;21.020;2023-02-10T14:52:31;14.27;;;4.55;;
73437;SDS011;66471;56.532;21.020;2023-02-10T14:55:27;13.93;;;4.32;;
73437;SDS011;66471;56.532;21.020;2023-02-10T14:58:04;7.10;;;1.77;;
73437;SDS011;66471;56.532;21.020;2023-02-10T20:34:04;15.88;;;3.95;;
73437;SDS011;66471;56.532;21.020;2023-02-10T20:36:31;16.95;;;4.25;;
73437;SDS011;66471;56.532;21.020;2023-02-10T20:38:59;15.43;;;3.27;;
73437;SDS011;66471;56.532;21.020;2023-02-10T20:41:29;16.17;;;3.83;;
73437;SDS011;66471;56.532;21.020;2023-02-10T20:43:57;12.98;;;3.70;;
73437;SDS011;66471;56.532;21.020;2023-02-10T20:46:24;23.15;;;4.25;;
73437;SDS011;66471;56.532;21.020;2023-02-10T20:48:53;16.42;;;4.50;;
73437;SDS011;66471;56.532;21.020;2023-02-10T20:51:21;15.83;;;4.37;;
73437;SDS011;66471;56.532;21.020;2023-02-10T20:53:48;10.65;;;2.83;;
73437;SDS011;66471;56.532;21.020;2023-02-10T20:56:17;20.48;;;3.80;;
73437;SDS011;66471;56.532;21.020;2023-02-10T20:58:45;15.60;;;3.80;;
73437;SDS011;66471;56.532;21.020;2023-02-10T21:01:13;15.15;;;3.83;;
73437;SDS011;66471;56.532;21.020;2023-02-10T21:03:43;12.27;;;3.27;;
73437;SDS011;66471;56.532;21.020;2023-02-10T21:06:12;13.35;;;3.90;;
73437;SDS011;66471;56.532;21.020;2023-02-10T21:08:48;11.10;;;3.33;;
73437;SDS011;66471;56.532;21.020;2023-02-10T21:11:18;6.72;;;2.50;;
73437;SDS011;66471;56.532;21.020;2023-02-10T21:13:47;14.93;;;3.45;;
73437;SDS011;66471;56.532;21.020;2023-02-10T21:16:15;8.87;;;2.37;;
73437;SDS011;66471;56.532;21.020;2023-02-10T21:18:44;11.63;;;2.63;;
73437;SDS011;66471;56.532;21.020;2023-02-10T21:21:12;7.50;;;2.25;;
73437;SDS011;66471;56.532;21.020;2023-02-10T21:23:40;10.98;;;2.30;;
73437;SDS011;66471;56.532;21.020;2023-02-10T21:26:07;9.20;;;2.00;;
73437;SDS011;66471;56.532;21.020;2023-02-10T21:28:35;8.80;;;2.50;;
73437;SDS011;66471;56.532;21.020;2023-02-10T21:31:07;6.47;;;1.90;;
73437;SDS011;66471;56.532;21.020;2023-02-10T21:33:38;8.82;;;2.22;;
73437;SDS011;66471;56.532;21.020;2023-02-10T21:36:06;7.78;;;2.08;;
73437;SDS011;66471;56.532;21.020;2023-02-10T21:38:43;7.20;;;1.75;;
73437;SDS011;66471;56.532;21.020;2023-02-10T21:41:10;9.17;;;2.27;;
73437;SDS011;66471;56.532;21.020;2023-02-10T21:43:58;9.48;;;2.05;;
73437;SDS011;66471;56.532;21.020;2023-02-10T21:46:25;12.95;;;3.22;;
73437;SDS011;66471;56.532;21.020;2023-02-10T21:48:53;10.27;;;2.42;;
73437;SDS011;66471;56.532;21.020;2023-02-10T21:51:20;15.20;;;3.33;;
73437;SDS011;66471;56.532;21.020;2023-02-10T21:53:47;9.93;;;3.20;;
73437;SDS011;66471;56.532;21.020;2023-02-10T21:56:15;13.07;;;2.83;;
73437;SDS011;66471;56.532;21.020;2023-02-10T21:58:44;10.07;;;3.33;;
73437;SDS011;66471;56.532;21.020;2023-02-10T22:01:13;18.98;;;3.63;;
73437;SDS011;66471;56.532;21.020;2023-02-10T22:03:41;18.35;;;4.15;;
73437;SDS011;66471;56.532;21.020;2023-02-10T22:06:09;20.13;;;3.63;;
73437;SDS011;66471;56.532;21.020;2023-02-10T22:08:37;17.20;;;2.95;;
73437;SDS011;66471;56.532;21.020;2023-02-10T22:11:05;27.50;;;5.55;;
73437;SDS011;66471;56.532;21.020;2023-02-10T22:13:34;18.23;;;3.80;;
73437;SDS011;66471;56.532;21.020;2023-02-10T22:16:03;26.63;;;4.07;;
73437;SDS011;66471;56.532;21.020;2023-02-10T22:18:32;18.43;;;3.90;;
73437;SDS011;66471;56.532;21.020;2023-02-10T22:21:03;25.25;;;5.70;;
73437;SDS011;66471;56.532;21.020;2023-02-10T22:23:37;17.30;;;4.03;;
73437;SDS011;66471;56.532;21.020;2023-02-10T22:26:05;21.83;;;5.15;;
73437;SDS011;66471;56.532;21.020;2023-02-10T22:28:33;20.17;;;4.28;;
73437;SDS011;66471;56.532;21.020;2023-02-10T22:31:05;18.33;;;2.27;;
73437;SDS011;66471;56.532;21.020;2023-02-10T22:33:33;16.88;;;3.88;;
73437;SDS011;66471;56.532;21.020;2023-02-10T22:36:04;20.85;;;4.40;;
73437;SDS011;66471;56.532;21.020;2023-02-10T22:38:34;17.83;;;4.00;;
73437;SDS011;66471;56.532;21.020;2023-02-10T22:41:06;20.27;;;5.13;;
73437;SDS011;66471;56.532;21.020;2023-02-10T22:43:34;22.30;;;6.43;;
73437;SDS011;66471;56.532;21.020;2023-02-10T22:46:03;21.13;;;5.05;;
73437;SDS011;66471;56.532;21.020;2023-02-10T22:48:30;13.20;;;3.78;;
73437;SDS011;66471;56.532;21.020;2023-02-10T22:53:37;24.75;;;5.90;;
73437;SDS011;66471;56.532;21.020;2023-02-10T22:56:05;16.67;;;4.80;;
73437;SDS011;66471;56.532;21.020;2023-02-10T22:58:34;23.48;;;5.60;;
73437;SDS011;66471;56.532;21.020;2023-02-10T23:01:01;17.80;;;5.05;;
73437;SDS011;66471;56.532;21.020;2023-02-10T23:03:28;12.20;;;3.90;;
73437;SDS011;66471;56.532;21.020;2023-02-10T23:05:55;18.92;;;7.30;;
73437;SDS011;66471;56.532;21.020;2023-02-10T23:08:22;22.20;;;6.30;;
73437;SDS011;66471;56.532;21.020;2023-02-10T23:10:49;15.18;;;5.13;;
73437;SDS011;66471;56.532;21.020;2023-02-10T23:13:16;17.08;;;5.78;;
73437;SDS011;66471;56.532;21.020;2023-02-10T23:15:44;23.40;;;6.10;;
73437;SDS011;66471;56.532;21.020;2023-02-10T23:18:11;16.67;;;5.63;;
73437;SDS011;66471;56.532;21.020;2023-02-10T23:20:38;14.40;;;4.43;;
73437;SDS011;66471;56.532;21.020;2023-02-10T23:23:05;21.10;;;5.78;;
73437;SDS011;66471;56.532;21.020;2023-02-10T23:25:32;19.38;;;5.57;;
73437;SDS011;66471;56.532;21.020;2023-02-10T23:27:59;17.75;;;6.10;;
73437;SDS011;66471;56.532;21.020;2023-02-10T23:30:27;16.08;;;6.50;;
73437;SDS011;66471;56.532;21.020;2023-02-10T23:32:54;16.23;;;5.87;;
73437;SDS011;66471;56.532;21.020;2023-02-10T23:35:21;25.40;;;7.80;;
73437;SDS011;66471;56.532;21.020;2023-02-10T23:37:48;20.52;;;6.32;;
73437;SDS011;66471;56.532;21.020;2023-02-10T23:40:15;18.58;;;7.75;;
73437;SDS011;66471;56.532;21.020;2023-02-10T23:42:42;32.92;;;8.10;;
73437;SDS011;66471;56.532;21.020;2023-02-10T23:45:09;23.63;;;10.33;;
73437;SDS011;66471;56.532;21.020;2023-02-10T23:47:36;26.48;;;7.93;;
73437;SDS011;66471;56.532;21.020;2023-02-10T23:50:03;25.30;;;8.40;;
73437;SDS011;66471;56.532;21.020;2023-02-10T23:52:31;24.67;;;8.10;;
73437;SDS011;66471;56.532;21.020;2023-02-10T23:54:58;31.33;;;9.98;;
73437;SDS011;66471;56.532;21.020;2023-02-10T23:57:25;32.03;;;10.97;;
73437;SDS011;66471;56.532;21.020;2023-02-10T23:59:53;28.05;;;9.38;;
